Vienna, Austria

4:13 PM CEST on 十月 01, 2014 (GMT +0200)
Theresianum | Change Station
CLOSE
Current Station
個人気象観測所
Location: Wien, WIEN
高度: 633 ft
最寄りの気象観測所

高度 633 ft 48.19 °N, 16.37 °E | Updated 6 minutes ago

Mostly Cloudy
だいたい曇
65.8 °F
体感気温 65.8 °F
-
風 変数 風 から

今日
高い -- | 低 -- °F
--% 降水確率
昨日
高い -- | 低 -- °F
Precip. -- インチ
6:53 AM 6:34 PM
三日月, 48% visible
気圧 30.27 インチ
視程 5.6 マイル
わずか 1500 ft
だいたい曇 6000 ft
だいたい曇 10000 ft
露点温度 58 °F
湿度 80%
降水 -999.00 インチ
積雪深 利用不可。
紫外線 1 の内の 12
花粉 利用不可。
空気品質 利用不可。
Flu Activity 利用不可。
METAR LOWW 011350Z 01005KT 9000 FEW015 BKN060 BKN100 18/16 Q1025 TEMPO RA

More Conditions Fewer Conditions

気圧 30.27 インチ
視程 5.6 マイル
わずか 1500 ft
だいたい曇 6000 ft
だいたい曇 10000 ft
露点温度 58 °F
湿度 80%
降水 -999.00 インチ
積雪深 利用不可。
紫外線 1 の内の 12
花粉 利用不可。
空気品質 利用不可。
Flu Activity 利用不可。
METAR LOWW 011350Z 01005KT 9000 FEW015 BKN060 BKN100 18/16 Q1025 TEMPO RA

More Conditions Fewer Conditions

10-Day Weather Forecast

Almanac

天文

Oct. 01, 2014 入り
実時間 6:53 AM CEST 6:34 PM CEST
常用薄明 6:22 AM CEST 7:05 PM CEST
航海薄明 5:46 AM CEST 7:41 PM CEST
天文薄明 5:09 AM CEST 8:18 PM CEST
1:59 PM CEST 11:27 PM CEST
可視光の長さ 12h 42m
可照時間
11h 40m
Tomorrow will be 3m 29s shorter.
三日月, 48% of the Moon is Illuminated
今日
三日月
10月 1
上弦
10月 8
満月
10月 15
第 4 四半期
10月 23
新しい

今日の極値

Country Highs Country Lows

Community

WunderPhotos

Upload Photos

1,757,952 写真がアップロードされました!

Nearby

積雪深

Not available.

地震活動

Distance Mag. Time & Date
No recent earthquake activity has been reported nearby.
Minimum magnitude displayed is 2.5.

沿岸の水温

地名 気温
観測所からの報告はありません

最寄りの気象観測所